Time;durP1;ratioP1;P1;durP2;ratioP2;P2;SDS_P1;SDS_P2;PMS_P1;PMS_P2;Temp;Humidity;BMP_temperature;BMP_pressure;BME280_temperature;BME280_humidity;BME280_pressure;Samples;Min_cycle;Max_cycle;Signal;HPM_P1;HPM_P2
2022/11/14 00:00:31;;;;;;;;;;;4.30;99.90;;;;;;4983291;28;19910;-76
2022/11/14 00:03:00;;;;;;;;;;;4.30;99.90;;;;;;4967149;28;19921;-76
2022/11/14 00:05:26;;;;;;;;;;;4.30;99.90;;;;;;4966638;28;19917;-76
2022/11/14 00:07:52;;;;;;;;;;;4.20;99.90;;;;;;4983755;28;19973;-76
2022/11/14 00:10:17;;;;;;;;;;;4.20;99.90;;;;;;4966768;28;19910;-76
2022/11/14 00:12:43;;;;;;;;;;;4.20;99.90;;;;;;4966899;28;19925;-76
2022/11/14 00:15:09;;;;;;;;;;;4.20;99.90;;;;;;4967093;28;19965;-75
2022/11/14 00:17:35;;;;;;;;;;;4.20;99.90;;;;;;4983809;28;19910;-75
2022/11/14 00:20:00;;;;;;;;;;;4.10;99.90;;;;;;4984010;28;20256;-75
2022/11/14 00:22:26;;;;;;;;;;;4.10;99.90;;;;;;4982902;28;19920;-75
2022/11/14 00:24:52;;;;;;;;;;;4.10;99.90;;;;;;4983966;28;20189;-75
2022/11/14 00:27:17;;;;;;;;;;;4.00;99.90;;;;;;4983131;28;20110;-75
2022/11/14 00:29:43;;;;;;;;;;;4.00;99.90;;;;;;4982592;28;20165;-75
2022/11/14 00:32:08;;;;;;;;;;;4.00;99.90;;;;;;4983392;28;19985;-75
2022/11/14 00:34:34;;;;;;;;;;;4.00;99.90;;;;;;4983853;28;20232;-75
2022/11/14 00:37:00;;;;;;;;;;;4.00;99.90;;;;;;4983350;28;20263;-75
2022/11/14 00:39:26;;;;;;;;;;;4.00;99.90;;;;;;4983796;28;20220;-75
2022/11/14 00:41:51;;;;;;;;;;;4.00;99.90;;;;;;4982180;28;19913;-75
2022/11/14 00:44:17;;;;;;;;;;;4.00;99.90;;;;;;4983446;28;19977;-75
2022/11/14 00:46:43;;;;;;;;;;;4.00;99.90;;;;;;4982335;28;19965;-75
2022/11/14 00:49:09;;;;;;;;;;;3.90;99.90;;;;;;4983528;28;19918;-75
2022/11/14 00:51:35;;;;;;;;;;;4.00;99.90;;;;;;4966573;28;19917;-75
2022/11/14 00:54:00;;;;;;;;;;;3.90;99.90;;;;;;4983525;28;19914;-76
2022/11/14 00:56:26;;;;;;;;;;;3.90;99.90;;;;;;4982904;28;19910;-75
2022/11/14 00:58:52;;;;;;;;;;;3.90;99.90;;;;;;4983573;28;19910;-75
2022/11/14 01:01:17;;;;;;;;;;;3.90;99.90;;;;;;4982201;28;20110;-76
2022/11/14 01:03:46;;;;;;;;;;;3.90;99.90;;;;;;4982172;28;19922;-76
2022/11/14 01:06:14;;;;;;;;;;;3.80;99.90;;;;;;4983730;28;19917;-75
2022/11/14 01:08:40;;;;;;;;;;;3.80;99.90;;;;;;4987527;28;20224;-76
2022/11/14 01:11:11;;;;;;;;;;;3.80;99.90;;;;;;4987130;28;19918;-75
2022/11/14 01:13:37;;;;;;;;;;;3.80;99.90;;;;;;4970720;28;20236;-75
2022/11/14 01:16:02;;;;;;;;;;;3.70;99.90;;;;;;4986218;28;19909;-75
2022/11/14 01:18:28;;;;;;;;;;;3.70;99.90;;;;;;4985958;28;20122;-76
2022/11/14 01:20:54;;;;;;;;;;;3.60;99.90;;;;;;4986207;28;19917;-75
2022/11/14 01:23:19;;;;;;;;;;;3.60;99.90;;;;;;4987072;28;19953;-75
2022/11/14 01:25:45;;;;;;;;;;;3.60;99.90;;;;;;4985834;28;20491;-76
2022/11/14 01:28:15;;;;;;;;;;;3.60;99.90;;;;;;4987057;28;19945;-76
2022/11/14 01:30:40;;;;;;;;;;;3.60;99.90;;;;;;4970476;28;19917;-76
2022/11/14 01:33:06;;;;;;;;;;;3.60;99.90;;;;;;4986132;28;20205;-75
2022/11/14 01:35:33;;;;;;;;;;;3.60;99.90;;;;;;4986683;28;19910;-75
2022/11/14 01:37:58;;;;;;;;;;;3.60;99.90;;;;;;4969361;28;19922;-75
2022/11/14 01:40:24;;;;;;;;;;;3.60;99.90;;;;;;4985909;28;19965;-76
2022/11/14 01:43:15;;;;;;;;;;;3.60;99.90;;;;;;4969544;28;20173;-76
2022/11/14 01:45:55;;;;;;;;;;;3.50;99.90;;;;;;4986889;28;19942;-76
2022/11/14 01:48:50;;;;;;;;;;;3.50;99.90;;;;;;4985570;28;20046;-76
2022/11/14 01:51:40;;;;;;;;;;;3.50;99.90;;;;;;4986288;28;19921;-76
2022/11/14 01:54:10;;;;;;;;;;;3.40;99.90;;;;;;4985595;28;19910;-76
2022/11/14 01:56:42;;;;;;;;;;;3.40;99.90;;;;;;4969807;28;19952;-75
2022/11/14 01:59:09;;;;;;;;;;;3.40;99.90;;;;;;4970111;28;19921;-76
2022/11/14 02:01:36;;;;;;;;;;;3.40;99.90;;;;;;4970443;28;20109;-76
2022/11/14 02:04:03;;;;;;;;;;;3.40;99.90;;;;;;4985767;28;19914;-75
2022/11/14 02:06:29;;;;;;;;;;;3.40;99.90;;;;;;4969890;28;19911;-75
2022/11/14 02:08:55;;;;;;;;;;;3.40;99.90;;;;;;4985742;28;19980;-75
2022/11/14 02:11:21;;;;;;;;;;;3.40;99.90;;;;;;4968895;28;19918;-74
2022/11/14 02:13:47;;;;;;;;;;;3.40;99.90;;;;;;4986030;28;19910;-75
2022/11/14 02:16:12;;;;;;;;;;;3.40;99.90;;;;;;4986235;28;19917;-75
2022/11/14 02:18:38;;;;;;;;;;;3.40;99.90;;;;;;4986044;28;19921;-76
2022/11/14 02:21:04;;;;;;;;;;;3.40;99.90;;;;;;4986457;28;19964;-76
2022/11/14 02:23:30;;;;;;;;;;;3.40;99.90;;;;;;4984974;28;19914;-76
2022/11/14 02:25:56;;;;;;;;;;;3.40;99.90;;;;;;4984387;28;19910;-76
2022/11/14 02:28:22;;;;;;;;;;;3.30;99.90;;;;;;4968638;28;19910;-76
2022/11/14 02:30:47;;;;;;;;;;;3.30;99.90;;;;;;4968903;28;20113;-76
2022/11/14 02:33:13;;;;;;;;;;;3.40;99.90;;;;;;5001049;28;19925;-76
2022/11/14 02:35:39;;;;;;;;;;;3.40;99.90;;;;;;4984767;28;20152;-76
2022/11/14 02:38:05;;;;;;;;;;;3.40;99.90;;;;;;4984507;28;19945;-76
2022/11/14 02:40:30;;;;;;;;;;;3.40;99.90;;;;;;4984771;28;20275;-76
2022/11/14 02:42:56;;;;;;;;;;;3.50;99.90;;;;;;4984251;28;19976;-76
2022/11/14 02:45:22;;;;;;;;;;;3.50;99.90;;;;;;4985893;28;20216;-76
2022/11/14 02:47:47;;;;;;;;;;;3.50;99.90;;;;;;4984250;28;19984;-76
2022/11/14 02:50:13;;;;;;;;;;;3.50;99.90;;;;;;4968430;28;19933;-76
2022/11/14 02:52:39;;;;;;;;;;;3.60;99.90;;;;;;4968295;28;19977;-76
2022/11/14 02:55:05;;;;;;;;;;;3.60;99.90;;;;;;4984432;28;20173;-76
2022/11/14 02:57:30;;;;;;;;;;;3.70;99.90;;;;;;4984994;28;19910;-76
2022/11/14 02:59:56;;;;;;;;;;;3.60;99.90;;;;;;4984246;28;19911;-76
2022/11/14 03:02:22;;;;;;;;;;;3.70;99.90;;;;;;4968203;28;19922;-76
2022/11/14 03:04:47;;;;;;;;;;;3.70;99.90;;;;;;4984918;28;19918;-76
2022/11/14 03:07:13;;;;;;;;;;;3.80;99.90;;;;;;4983879;28;19981;-76
2022/11/14 03:09:39;;;;;;;;;;;3.80;99.90;;;;;;4985277;28;20085;-76
2022/11/14 03:12:05;;;;;;;;;;;3.80;99.90;;;;;;4984015;28;19981;-76
2022/11/14 03:14:31;;;;;;;;;;;3.80;99.90;;;;;;4984199;28;19910;-76
2022/11/14 03:16:56;;;;;;;;;;;3.80;99.90;;;;;;4983543;28;19989;-76
2022/11/14 03:19:22;;;;;;;;;;;3.80;99.90;;;;;;4985250;28;19953;-76
2022/11/14 03:21:48;;;;;;;;;;;3.80;99.90;;;;;;4984028;28;19918;-76
2022/11/14 03:24:13;;;;;;;;;;;3.90;99.90;;;;;;4985035;28;19918;-76
2022/11/14 03:26:39;;;;;;;;;;;3.80;99.90;;;;;;4983403;28;19922;-76
2022/11/14 03:29:05;;;;;;;;;;;3.80;99.90;;;;;;4984300;28;19968;-76
2022/11/14 03:31:30;;;;;;;;;;;3.80;99.90;;;;;;5000062;28;19918;-76
2022/11/14 03:33:56;;;;;;;;;;;3.70;99.90;;;;;;4984774;28;19989;-76
2022/11/14 03:36:21;;;;;;;;;;;3.70;99.90;;;;;;4983475;28;19910;-76
2022/11/14 03:38:47;;;;;;;;;;;3.60;99.90;;;;;;4984474;28;19929;-76
2022/11/14 03:41:13;;;;;;;;;;;3.60;99.90;;;;;;4983930;28;19910;-75
2022/11/14 03:43:38;;;;;;;;;;;3.60;99.90;;;;;;4984616;28;19950;-76
2022/11/14 03:46:04;;;;;;;;;;;3.60;99.90;;;;;;4984514;28;19948;-76
2022/11/14 03:48:30;;;;;;;;;;;3.70;99.90;;;;;;4984528;28;19957;-76
2022/11/14 03:50:55;;;;;;;;;;;3.70;99.90;;;;;;4984394;28;19911;-76
2022/11/14 03:53:21;;;;;;;;;;;3.60;99.90;;;;;;4984512;28;19918;-76
2022/11/14 03:55:47;;;;;;;;;;;3.60;99.90;;;;;;4983733;28;19910;-76
2022/11/14 03:58:12;;;;;;;;;;;3.60;99.90;;;;;;4984071;28;19918;-76
2022/11/14 04:00:38;;;;;;;;;;;3.60;99.90;;;;;;4984368;28;19948;-76
2022/11/14 04:03:04;;;;;;;;;;;3.60;99.90;;;;;;4984330;28;20117;-76
2022/11/14 04:05:29;;;;;;;;;;;3.60;99.90;;;;;;4983791;28;19921;-76
2022/11/14 04:07:55;;;;;;;;;;;3.40;99.90;;;;;;4982342;28;19918;-76
2022/11/14 04:10:21;;;;;;;;;;;3.30;99.90;;;;;;4983013;28;19933;-76
2022/11/14 04:12:48;;;;;;;;;;;3.20;99.90;;;;;;4983985;28;19913;-76
2022/11/14 04:15:13;;;;;;;;;;;3.10;99.90;;;;;;4984124;28;19910;-76
2022/11/14 04:17:39;;;;;;;;;;;3.10;99.90;;;;;;4982635;28;20180;-76
2022/11/14 04:20:05;;;;;;;;;;;3.10;99.90;;;;;;4984076;28;19917;-76
2022/11/14 04:22:31;;;;;;;;;;;3.10;99.90;;;;;;4983921;28;19957;-76
2022/11/14 04:24:56;;;;;;;;;;;3.20;99.90;;;;;;4983917;28;19914;-76
2022/11/14 04:27:22;;;;;;;;;;;3.20;99.90;;;;;;4983535;28;19922;-76
2022/11/14 04:29:48;;;;;;;;;;;3.20;99.90;;;;;;4982916;28;19910;-76
2022/11/14 04:32:13;;;;;;;;;;;3.20;99.90;;;;;;4984033;28;19910;-76
2022/11/14 04:34:39;;;;;;;;;;;3.20;99.90;;;;;;4983868;28;19961;-76
2022/11/14 04:37:05;;;;;;;;;;;3.10;99.90;;;;;;4983335;28;19914;-77
2022/11/14 04:39:30;;;;;;;;;;;3.00;99.90;;;;;;4982439;28;19957;-76
2022/11/14 04:41:56;;;;;;;;;;;2.90;99.90;;;;;;4983472;28;19910;-76
2022/11/14 04:44:21;;;;;;;;;;;2.90;99.90;;;;;;4983804;28;19914;-76
2022/11/14 04:46:47;;;;;;;;;;;2.90;99.90;;;;;;4983681;28;19925;-76
2022/11/14 04:49:13;;;;;;;;;;;3.00;99.90;;;;;;4984034;28;19914;-76
2022/11/14 04:51:38;;;;;;;;;;;3.10;99.90;;;;;;4983657;28;19916;-76
2022/11/14 04:54:04;;;;;;;;;;;3.10;99.90;;;;;;4983870;28;19910;-76
2022/11/14 04:56:30;;;;;;;;;;;3.00;99.90;;;;;;4983469;28;19910;-76
2022/11/14 04:58:55;;;;;;;;;;;3.00;99.90;;;;;;4984231;28;19933;-76
2022/11/14 05:01:21;;;;;;;;;;;3.00;99.90;;;;;;4982797;28;19910;-76
2022/11/14 05:03:47;;;;;;;;;;;3.00;99.90;;;;;;4983688;28;19922;-76
2022/11/14 05:06:12;;;;;;;;;;;2.90;99.90;;;;;;4983313;28;19918;-76
2022/11/14 05:08:38;;;;;;;;;;;2.90;99.90;;;;;;4983549;28;19910;-77
2022/11/14 05:11:04;;;;;;;;;;;2.90;99.90;;;;;;4982348;28;19969;-77
2022/11/14 05:13:29;;;;;;;;;;;3.00;99.90;;;;;;4983519;28;19909;-77
2022/11/14 05:15:59;;;;;;;;;;;3.00;99.90;;;;;;4982201;28;20233;-76
2022/11/14 05:18:24;;;;;;;;;;;3.00;99.90;;;;;;4966227;28;20212;-77
2022/11/14 05:20:50;;;;;;;;;;;3.00;99.90;;;;;;4983339;28;19917;-76
2022/11/14 05:23:21;;;;;;;;;;;3.00;99.90;;;;;;4983350;28;19914;-76
2022/11/14 05:25:46;;;;;;;;;;;3.00;99.90;;;;;;4966433;28;19918;-77
2022/11/14 05:28:12;;;;;;;;;;;2.90;99.90;;;;;;4982813;28;19918;-76
2022/11/14 05:30:38;;;;;;;;;;;2.90;99.90;;;;;;4982154;28;20209;-75
2022/11/14 05:33:03;;;;;;;;;;;2.90;99.90;;;;;;4982006;28;19921;-76
2022/11/14 05:35:29;;;;;;;;;;;2.90;99.90;;;;;;4982982;28;20252;-76
2022/11/14 05:37:55;;;;;;;;;;;2.80;99.90;;;;;;4982417;28;19918;-76
2022/11/14 05:40:20;;;;;;;;;;;2.80;99.90;;;;;;4981734;28;19957;-76
2022/11/14 05:42:46;;;;;;;;;;;2.90;99.90;;;;;;4982418;28;19986;-76
2022/11/14 05:45:12;;;;;;;;;;;2.90;99.90;;;;;;4981874;28;19919;-76
2022/11/14 05:47:37;;;;;;;;;;;2.90;99.90;;;;;;4973061;28;19928;-75
2022/11/14 05:50:03;;;;;;;;;;;2.90;99.90;;;;;;4982734;28;19933;-76
2022/11/14 05:52:29;;;;;;;;;;;2.90;99.90;;;;;;4967364;28;19917;-76
2022/11/14 05:54:55;;;;;;;;;;;2.90;99.90;;;;;;4984665;28;19985;-76
2022/11/14 05:57:21;;;;;;;;;;;2.90;99.90;;;;;;5001178;28;19910;-76
2022/11/14 05:59:46;;;;;;;;;;;2.90;99.90;;;;;;4984430;28;19917;-76
2022/11/14 06:02:12;;;;;;;;;;;2.90;99.90;;;;;;4986414;28;19925;-76
2022/11/14 06:04:38;;;;;;;;;;;2.90;99.90;;;;;;4983652;28;19929;-76
2022/11/14 06:07:03;;;;;;;;;;;2.90;99.90;;;;;;4983849;28;19910;-76
2022/11/14 06:09:29;;;;;;;;;;;2.90;99.90;;;;;;4998543;28;19917;-76
2022/11/14 06:11:54;;;;;;;;;;;3.00;99.90;;;;;;4983697;28;19921;-76
2022/11/14 06:14:20;;;;;;;;;;;2.90;99.90;;;;;;4986166;28;19945;-77
2022/11/14 06:16:46;;;;;;;;;;;3.00;99.90;;;;;;4982534;28;19923;-75
2022/11/14 06:19:11;;;;;;;;;;;3.00;99.90;;;;;;4980300;28;19989;-75
2022/11/14 06:21:37;;;;;;;;;;;2.90;99.90;;;;;;4984646;28;20193;-77
2022/11/14 06:24:03;;;;;;;;;;;2.90;99.90;;;;;;4984896;28;19914;-76
2022/11/14 06:26:29;;;;;;;;;;;3.00;99.90;;;;;;4986235;28;19910;-77
2022/11/14 06:28:55;;;;;;;;;;;3.00;99.90;;;;;;4985071;28;19961;-77
2022/11/14 06:31:21;;;;;;;;;;;3.00;99.90;;;;;;4984684;28;19914;-75
2022/11/14 06:33:47;;;;;;;;;;;3.00;99.90;;;;;;4984340;28;20109;-77
2022/11/14 06:36:12;;;;;;;;;;;3.10;99.90;;;;;;4984579;28;19922;-76
2022/11/14 06:38:39;;;;;;;;;;;3.10;99.90;;;;;;4982571;28;20125;-76
2022/11/14 06:41:11;;;;;;;;;;;3.10;99.90;;;;;;4977690;28;19922;-75
2022/11/14 06:43:43;;;;;;;;;;;3.10;99.90;;;;;;4980912;28;20407;-75
2022/11/14 06:46:10;;;;;;;;;;;3.20;99.90;;;;;;4978761;28;19914;-77
2022/11/14 06:48:36;;;;;;;;;;;3.20;99.90;;;;;;4979840;28;19914;-77
2022/11/14 06:51:02;;;;;;;;;;;3.20;99.90;;;;;;4983439;28;19985;-77
2022/11/14 06:53:29;;;;;;;;;;;3.30;99.90;;;;;;4967871;28;19922;-74
2022/11/14 06:55:55;;;;;;;;;;;3.30;99.90;;;;;;4979103;28;20029;-78
2022/11/14 06:58:21;;;;;;;;;;;3.30;99.90;;;;;;4983965;28;19953;-78
2022/11/14 07:00:47;;;;;;;;;;;3.40;99.90;;;;;;4983911;28;20122;-78
2022/11/14 07:03:12;;;;;;;;;;;3.40;99.90;;;;;;4984642;28;19922;-80
2022/11/14 07:05:38;;;;;;;;;;;3.40;99.90;;;;;;4982413;28;19910;-77
2022/11/14 07:08:04;;;;;;;;;;;3.40;99.90;;;;;;4983558;28;19954;-76
2022/11/14 07:10:29;;;;;;;;;;;3.50;99.90;;;;;;4983743;28;19910;-80
2022/11/14 07:12:55;;;;;;;;;;;3.50;99.90;;;;;;4966949;28;19910;-73
2022/11/14 07:15:21;;;;;;;;;;;3.50;99.90;;;;;;4982932;28;19910;-74
2022/11/14 07:17:47;;;;;;;;;;;3.50;99.90;;;;;;4984676;28;19910;-74
2022/11/14 07:20:14;;;;;;;;;;;3.50;99.90;;;;;;4983706;28;19965;-78
2022/11/14 07:22:40;;;;;;;;;;;3.50;99.90;;;;;;4985006;28;19918;-78
2022/11/14 07:25:06;;;;;;;;;;;3.50;99.90;;;;;;4967405;28;20247;-77
2022/11/14 07:27:33;;;;;;;;;;;3.60;99.90;;;;;;4984255;28;20052;-78
2022/11/14 07:29:59;;;;;;;;;;;3.70;99.90;;;;;;4985063;28;20374;-79
2022/11/14 07:32:24;;;;;;;;;;;3.70;99.90;;;;;;4985409;28;20232;-76
2022/11/14 07:34:50;;;;;;;;;;;3.80;99.90;;;;;;4999419;28;20228;-77
2022/11/14 07:37:15;;;;;;;;;;;3.80;99.90;;;;;;4966981;28;20164;-77
2022/11/14 07:39:41;;;;;;;;;;;3.80;99.90;;;;;;4984230;28;19978;-77
2022/11/14 07:42:07;;;;;;;;;;;3.80;99.90;;;;;;4967446;28;19918;-77
2022/11/14 07:44:32;;;;;;;;;;;3.80;99.90;;;;;;4967343;28;19922;-77
2022/11/14 07:46:58;;;;;;;;;;;3.80;99.90;;;;;;4983838;28;20365;-77
2022/11/14 07:49:24;;;;;;;;;;;3.80;99.90;;;;;;4984248;28;19914;-76
2022/11/14 07:51:49;;;;;;;;;;;3.80;99.90;;;;;;4984146;28;19910;-77
2022/11/14 07:54:15;;;;;;;;;;;3.80;99.90;;;;;;4984286;28;20164;-77
2022/11/14 07:56:41;;;;;;;;;;;3.80;99.90;;;;;;4983219;28;19910;-77
2022/11/14 07:59:06;;;;;;;;;;;3.80;99.90;;;;;;4983451;28;19917;-77
2022/11/14 08:01:32;;;;;;;;;;;3.80;99.90;;;;;;4984479;28;19925;-77
2022/11/14 08:03:57;;;;;;;;;;;3.90;99.90;;;;;;4983208;28;19922;-77
2022/11/14 08:06:23;;;;;;;;;;;3.90;99.90;;;;;;4983470;28;19917;-78
2022/11/14 08:08:49;;;;;;;;;;;3.90;99.90;;;;;;4983405;28;19990;-78
2022/11/14 08:11:14;;;;;;;;;;;4.00;99.90;;;;;;4984651;28;19910;-77
2022/11/14 08:13:40;;;;;;;;;;;4.10;99.90;;;;;;4982832;28;19910;-77
2022/11/14 08:16:07;;;;;;;;;;;4.10;99.90;;;;;;4982711;28;19914;-78
2022/11/14 08:18:32;;;;;;;;;;;4.20;99.90;;;;;;4967150;28;20000;-77
2022/11/14 08:20:58;;;;;;;;;;;4.30;99.90;;;;;;4966938;28;19918;-77
2022/11/14 08:23:24;;;;;;;;;;;4.40;99.90;;;;;;4967204;28;19960;-77
2022/11/14 08:25:50;;;;;;;;;;;4.40;99.90;;;;;;4983809;28;19910;-78
2022/11/14 08:28:15;;;;;;;;;;;4.60;99.90;;;;;;4982690;28;20228;-78
2022/11/14 08:30:41;;;;;;;;;;;4.60;99.90;;;;;;4984132;28;19920;-78
2022/11/14 08:33:07;;;;;;;;;;;4.70;99.90;;;;;;4984094;28;20536;-78
2022/11/14 08:35:32;;;;;;;;;;;4.80;99.90;;;;;;4983832;28;19929;-77
2022/11/14 08:38:00;;;;;;;;;;;4.90;99.90;;;;;;4965943;28;19926;-78
2022/11/14 08:40:26;;;;;;;;;;;5.00;99.90;;;;;;4982847;28;19916;-78
2022/11/14 08:42:51;;;;;;;;;;;5.10;99.90;;;;;;4982727;28;19914;-78
2022/11/14 08:45:17;;;;;;;;;;;5.10;99.90;;;;;;4984026;28;19918;-78
2022/11/14 08:47:49;;;;;;;;;;;5.10;99.90;;;;;;4982538;28;19964;-78
2022/11/14 08:50:15;;;;;;;;;;;5.20;99.90;;;;;;4982518;28;19918;-78
2022/11/14 08:52:41;;;;;;;;;;;5.30;99.90;;;;;;4966585;28;19968;-77
2022/11/14 08:55:06;;;;;;;;;;;5.40;99.90;;;;;;4983717;28;19973;-76
2022/11/14 08:57:32;;;;;;;;;;;5.60;99.90;;;;;;4966147;28;19956;-76
2022/11/14 08:59:58;;;;;;;;;;;5.70;99.90;;;;;;4982494;28;19918;-77
2022/11/14 09:02:23;;;;;;;;;;;5.80;99.90;;;;;;4987380;28;19977;-82
2022/11/14 09:04:49;;;;;;;;;;;5.90;99.90;;;;;;4988923;28;19910;-81
2022/11/14 09:07:15;;;;;;;;;;;6.00;99.90;;;;;;4988350;28;19917;-82
2022/11/14 09:09:40;;;;;;;;;;;6.00;99.90;;;;;;4987382;28;19916;-81
2022/11/14 09:12:06;;;;;;;;;;;6.10;99.90;;;;;;4971306;28;19909;-82
2022/11/14 09:14:32;;;;;;;;;;;6.20;99.90;;;;;;4986273;28;19957;-77
2022/11/14 09:16:57;;;;;;;;;;;6.20;99.90;;;;;;4983933;28;19918;-77
2022/11/14 09:19:23;;;;;;;;;;;6.30;99.90;;;;;;4985257;28;19910;-77
2022/11/14 09:21:49;;;;;;;;;;;6.40;99.90;;;;;;4982492;28;19914;-77
2022/11/14 09:24:14;;;;;;;;;;;6.50;99.90;;;;;;4985845;28;19953;-80
2022/11/14 09:26:40;;;;;;;;;;;6.70;99.90;;;;;;4985088;28;19910;-79
2022/11/14 09:29:07;;;;;;;;;;;6.90;99.90;;;;;;4987580;28;19910;-79
2022/11/14 09:31:33;;;;;;;;;;;7.00;99.90;;;;;;5002625;28;19918;-79
2022/11/14 09:33:58;;;;;;;;;;;7.10;99.90;;;;;;4988373;28;19916;-85
2022/11/14 09:36:24;;;;;;;;;;;7.30;99.90;;;;;;4989023;28;20201;-84
2022/11/14 09:38:50;;;;;;;;;;;7.50;99.90;;;;;;4972124;28;19945;-84
2022/11/14 09:41:23;;;;;;;;;;;7.60;99.90;;;;;;4988183;28;19917;-82
2022/11/14 09:44:04;;;;;;;;;;;7.70;99.90;;;;;;4988147;28;19944;-82
2022/11/14 09:46:37;;;;;;;;;;;8.00;99.90;;;;;;4970242;28;19911;-80
2022/11/14 09:49:03;;;;;;;;;;;8.20;99.90;;;;;;4966476;29;19949;-78
2022/11/14 09:51:31;;;;;;;;;;;8.30;99.90;;;;;;4983283;28;19910;-78
2022/11/14 09:54:17;;;;;;;;;;;8.50;99.90;;;;;;4983958;28;19941;-78
2022/11/14 09:56:43;;;;;;;;;;;8.60;99.90;;;;;;4983649;28;19940;-78
2022/11/14 09:59:12;;;;;;;;;;;8.80;99.90;;;;;;4968918;28;19914;-79
2022/11/14 10:01:50;;;;;;;;;;;9.00;99.90;;;;;;4984935;28;19918;-79
2022/11/14 10:04:25;;;;;;;;;;;9.20;99.90;;;;;;4983525;28;19914;-78
2022/11/14 10:07:20;;;;;;;;;;;9.40;99.90;;;;;;4987272;28;19948;-79
2022/11/14 10:10:08;;;;;;;;;;;9.60;99.90;;;;;;4971680;28;19917;-80
2022/11/14 10:12:33;;;;;;;;;;;9.80;99.90;;;;;;4987343;28;19925;-78
2022/11/14 10:15:14;;;;;;;;;;;10.00;99.90;;;;;;4988011;28;20205;-79
2022/11/14 10:18:01;;;;;;;;;;;10.20;99.90;;;;;;4988014;28;20088;-80
2022/11/14 10:20:41;;;;;;;;;;;10.40;99.90;;;;;;4989124;28;19917;-80
2022/11/14 10:23:13;;;;;;;;;;;10.70;99.90;;;;;;4972197;28;19941;-80
2022/11/14 10:26:08;;;;;;;;;;;11.00;99.90;;;;;;4972850;28;19937;-81
2022/11/14 10:28:55;;;;;;;;;;;11.20;99.90;;;;;;4987423;28;19941;-80
2022/11/14 10:31:27;;;;;;;;;;;11.50;99.90;;;;;;4987392;28;19989;-80
2022/11/14 10:34:07;;;;;;;;;;;11.90;99.90;;;;;;4987283;28;20129;-81
2022/11/14 10:37:19;;;;;;;;;;;12.10;99.90;;;;;;4971838;28;20033;-83
2022/11/14 10:39:44;;;;;;;;;;;12.40;99.90;;;;;;4950647;29;19915;-83
2022/11/14 10:42:29;;;;;;;;;;;12.80;99.90;;;;;;4986338;28;19952;-84
2022/11/14 10:45:22;;;;;;;;;;;13.00;99.90;;;;;;4971233;28;20268;-80
2022/11/14 10:47:59;;;;;;;;;;;13.30;99.90;;;;;;4986652;28;19918;-81
2022/11/14 10:50:50;;;;;;;;;;;13.50;99.90;;;;;;4986160;28;19917;-83
2022/11/14 10:53:43;;;;;;;;;;;13.80;99.90;;;;;;4986504;28;19910;-79
2022/11/14 10:56:11;;;;;;;;;;;13.90;99.90;;;;;;4987592;28;19910;-81
2022/11/14 10:58:37;;;;;;;;;;;13.90;99.90;;;;;;4985707;28;19953;-80
2022/11/14 11:01:31;;;;;;;;;;;13.70;99.90;;;;;;4956580;28;19965;-80
2022/11/14 11:03:56;;;;;;;;;;;13.40;99.90;;;;;;4986128;28;20149;-78
2022/11/14 11:06:26;;;;;;;;;;;13.00;99.90;;;;;;4983815;28;19925;-77
2022/11/14 11:11:38;;;;;;;;;;;12.60;99.90;;;;;;4986900;28;19917;-80
2022/11/14 11:14:03;;;;;;;;;;;12.30;99.90;;;;;;4985238;28;19910;-78
2022/11/14 11:16:29;;;;;;;;;;;12.20;99.90;;;;;;4986404;28;20144;-78
2022/11/14 11:19:23;;;;;;;;;;;12.20;99.90;;;;;;4984861;28;20079;-77
2022/11/14 11:21:50;;;;;;;;;;;12.20;99.90;;;;;;4983116;28;19910;-75
2022/11/14 11:24:33;;;;;;;;;;;12.20;99.90;;;;;;4984258;28;19939;-75
2022/11/14 11:27:11;;;;;;;;;;;12.10;99.90;;;;;;4983191;28;19910;-75
2022/11/14 11:29:36;;;;;;;;;;;12.20;99.90;;;;;;4984708;28;20185;-76
2022/11/14 11:32:02;;;;;;;;;;;12.20;99.90;;;;;;4967991;28;19929;-75
2022/11/14 11:34:31;;;;;;;;;;;12.20;99.90;;;;;;4985333;28;20019;-75
2022/11/14 11:37:01;;;;;;;;;;;12.30;99.90;;;;;;4984398;28;19917;-75
2022/11/14 11:39:29;;;;;;;;;;;12.40;99.90;;;;;;4984028;28;19997;-75
2022/11/14 11:41:55;;;;;;;;;;;12.60;99.90;;;;;;4984967;28;20017;-75
2022/11/14 11:44:21;;;;;;;;;;;12.80;99.90;;;;;;4967910;28;19914;-75
2022/11/14 11:46:55;;;;;;;;;;;13.10;99.90;;;;;;4983511;28;20229;-75
2022/11/14 11:49:46;;;;;;;;;;;13.30;99.90;;;;;;4983344;28;19910;-74
2022/11/14 11:52:23;;;;;;;;;;;13.40;99.90;;;;;;4984436;28;19910;-75
2022/11/14 11:54:54;;;;;;;;;;;13.40;99.90;;;;;;4968361;28;20087;-74
2022/11/14 11:57:23;;;;;;;;;;;13.40;99.90;;;;;;4983247;28;19926;-74
2022/11/14 11:59:52;;;;;;;;;;;13.50;99.90;;;;;;4984657;28;20197;-74
2022/11/14 12:02:20;;;;;;;;;;;13.50;99.90;;;;;;4967591;28;20332;-74
2022/11/14 12:04:46;;;;;;;;;;;13.40;99.90;;;;;;4984498;28;19920;-74
2022/11/14 12:07:14;;;;;;;;;;;13.40;99.90;;;;;;4966681;28;19910;-74
2022/11/14 12:09:40;;;;;;;;;;;13.40;99.90;;;;;;4967407;28;19916;-74
2022/11/14 12:12:10;;;;;;;;;;;13.60;99.90;;;;;;4983210;28;19910;-74
2022/11/14 12:15:04;;;;;;;;;;;14.10;99.90;;;;;;4968959;28;19956;-74
2022/11/14 12:18:02;;;;;;;;;;;14.60;99.90;;;;;;4983911;28;19917;-75
2022/11/14 12:20:44;;;;;;;;;;;15.20;99.90;;;;;;4983760;28;19984;-74
2022/11/14 12:23:49;;;;;;;;;;;15.80;99.90;;;;;;4968802;28;19921;-73
2022/11/14 12:26:24;;;;;;;;;;;16.40;99.90;;;;;;4982860;28;19945;-74
2022/11/14 12:28:57;;;;;;;;;;;17.10;99.90;;;;;;4982783;28;20204;-74
2022/11/14 12:31:24;;;;;;;;;;;17.70;99.90;;;;;;4984234;28;19925;-75
2022/11/14 12:34:19;;;;;;;;;;;17.90;98.40;;;;;;4984165;28;19945;-74
2022/11/14 12:36:45;;;;;;;;;;;18.00;97.30;;;;;;4982495;28;19985;-77
2022/11/14 12:39:21;;;;;;;;;;;18.30;97.00;;;;;;4966783;28;20232;-77
2022/11/14 12:41:47;;;;;;;;;;;18.40;95.10;;;;;;4982952;28;19973;-77
2022/11/14 12:44:36;;;;;;;;;;;18.60;94.10;;;;;;4982762;28;20213;-76
2022/11/14 12:47:05;;;;;;;;;;;19.30;91.50;;;;;;4967073;28;19917;-77
2022/11/14 12:49:45;;;;;;;;;;;20.00;86.10;;;;;;4984036;28;20205;-77
2022/11/14 12:52:39;;;;;;;;;;;20.50;81.10;;;;;;4983700;28;19929;-77
2022/11/14 12:55:17;;;;;;;;;;;21.40;76.60;;;;;;4982658;28;19952;-77
2022/11/14 12:58:04;;;;;;;;;;;22.60;68.90;;;;;;4983619;28;20110;-78
2022/11/14 13:00:29;;;;;;;;;;;23.50;63.40;;;;;;4966693;28;19910;-77
2022/11/14 13:03:26;;;;;;;;;;;24.30;54.90;;;;;;4981782;28;20237;-77
2022/11/14 13:06:00;;;;;;;;;;;24.20;54.00;;;;;;4983397;28;19910;-77
2022/11/14 13:08:34;;;;;;;;;;;24.10;52.40;;;;;;4967384;28;19910;-77
2022/11/14 13:11:00;;;;;;;;;;;23.10;55.00;;;;;;4983554;28;19992;-76
2022/11/14 13:22:09;;;;;;;;;;;17.30;91.00;;;;;;4968857;28;19918;-75
2022/11/14 13:24:57;;;;;;;;;;;16.40;96.30;;;;;;4983365;28;20209;-75
2022/11/14 13:27:29;;;;;;;;;;;15.80;99.90;;;;;;4983165;28;19918;-75
2022/11/14 13:29:56;;;;;;;;;;;15.30;99.90;;;;;;4966771;28;19978;-75
2022/11/14 13:32:40;;;;;;;;;;;14.90;99.90;;;;;;4982498;28;20148;-75
2022/11/14 13:35:13;;;;;;;;;;;14.70;99.90;;;;;;4983577;28;19917;-75
2022/11/14 13:38:01;;;;;;;;;;;14.40;99.90;;;;;;4965537;28;19914;-75
2022/11/14 13:40:51;;;;;;;;;;;14.30;99.90;;;;;;4966044;28;20173;-75
2022/11/14 13:43:47;;;;;;;;;;;14.10;99.90;;;;;;4981713;28;20223;-75
2022/11/14 13:46:34;;;;;;;;;;;13.90;99.90;;;;;;4982981;28;19960;-75
2022/11/14 13:49:39;;;;;;;;;;;13.80;99.90;;;;;;4982201;28;20205;-75
2022/11/14 13:52:04;;;;;;;;;;;13.70;99.90;;;;;;4998096;28;19917;-75
2022/11/14 13:54:30;;;;;;;;;;;13.70;99.90;;;;;;4982685;28;20198;-75
2022/11/14 13:57:02;;;;;;;;;;;13.60;99.90;;;;;;4981757;28;20146;-75
2022/11/14 13:59:27;;;;;;;;;;;13.50;99.90;;;;;;4982035;28;19941;-75
2022/11/14 14:02:08;;;;;;;;;;;13.50;99.90;;;;;;4983148;28;19910;-75
2022/11/14 14:04:36;;;;;;;;;;;13.50;99.90;;;;;;4981898;28;20267;-75
2022/11/14 14:07:29;;;;;;;;;;;13.50;99.90;;;;;;4982583;28;19918;-75
2022/11/14 14:10:13;;;;;;;;;;;13.50;99.90;;;;;;4983076;28;19971;-75
2022/11/14 14:12:57;;;;;;;;;;;13.50;99.90;;;;;;4983304;28;19910;-75
2022/11/14 14:15:36;;;;;;;;;;;13.50;99.90;;;;;;4986714;28;20197;-75
2022/11/14 14:18:16;;;;;;;;;;;13.50;99.90;;;;;;4954375;28;19964;-75
2022/11/14 14:20:57;;;;;;;;;;;13.50;99.90;;;;;;4984960;28;19980;-75
2022/11/14 14:23:29;;;;;;;;;;;13.50;99.90;;;;;;4985198;28;19922;-75
2022/11/14 14:26:46;;;;;;;;;;;13.40;99.90;;;;;;4986223;28;19965;-75
2022/11/14 14:29:36;;;;;;;;;;;13.40;99.90;;;;;;4974522;28;20259;-76
2022/11/14 14:32:16;;;;;;;;;;;13.40;99.90;;;;;;4971220;28;19918;-75
2022/11/14 14:34:42;;;;;;;;;;;13.30;99.90;;;;;;4969806;28;19977;-75
2022/11/14 14:37:18;;;;;;;;;;;13.30;99.90;;;;;;4968142;28;19922;-76
2022/11/14 14:40:01;;;;;;;;;;;13.30;99.90;;;;;;4969700;28;19911;-76
2022/11/14 14:42:40;;;;;;;;;;;13.20;99.90;;;;;;4985102;28;19916;-76
2022/11/14 14:45:24;;;;;;;;;;;13.20;99.90;;;;;;4986013;28;19914;-76
2022/11/14 14:47:57;;;;;;;;;;;13.20;99.90;;;;;;4984667;28;19938;-76
2022/11/14 14:50:25;;;;;;;;;;;13.10;99.90;;;;;;4969602;28;19918;-76
2022/11/14 14:53:01;;;;;;;;;;;13.00;99.90;;;;;;4968643;28;19917;-76